createdAt,value
2022-09-20T00:01:08.195Z,94665.13
2022-09-20T00:03:40.057Z,94668.91
2022-09-20T00:06:09.457Z,94657.53
2022-09-20T00:08:36.377Z,94658.63
2022-09-20T00:11:15.732Z,94659.84
2022-09-20T00:13:44.365Z,94657.00
2022-09-20T00:16:14.019Z,94660.69
2022-09-20T00:18:41.005Z,94655.91
2022-09-20T00:21:12.423Z,94651.59
2022-09-20T00:23:39.024Z,94651.22
2022-09-20T00:26:05.789Z,94654.31
2022-09-20T00:28:34.597Z,94649.88
2022-09-20T00:31:01.473Z,94653.44
2022-09-20T00:33:46.665Z,94649.00
2022-09-20T00:36:13.336Z,94650.72
2022-09-20T00:38:39.995Z,94645.66
2022-09-20T00:41:06.660Z,94645.47
2022-09-20T00:43:38.172Z,94648.75
2022-09-20T00:46:06.772Z,94647.94
2022-09-20T00:48:34.107Z,94635.41
2022-09-20T00:51:09.249Z,94647.94
2022-09-20T00:53:40.798Z,94639.16
2022-09-20T00:56:12.989Z,94637.88
2022-09-20T00:58:47.026Z,94644.28
2022-09-20T01:01:13.861Z,94637.38
2022-09-20T01:03:42.216Z,94638.97
2022-09-20T01:06:13.948Z,94634.22
2022-09-20T01:08:44.560Z,94631.06
2022-09-20T01:11:11.277Z,94627.09
2022-09-20T01:13:37.909Z,94628.88
2022-09-20T01:16:06.421Z,94625.81
2022-09-20T01:18:36.241Z,94631.63
2022-09-20T01:21:05.347Z,94637.47
2022-09-20T01:24:09.706Z,94636.25
2022-09-20T01:26:54.575Z,94634.84
2022-09-20T01:29:31.216Z,94633.13
2022-09-20T01:32:01.967Z,94631.25
2022-09-20T01:34:47.073Z,94635.16
2022-09-20T01:37:16.865Z,94629.22
2022-09-20T01:39:49.432Z,94632.69
2022-09-20T01:42:16.270Z,94629.53
2022-09-20T01:44:46.258Z,94630.81
2022-09-20T01:47:25.110Z,94629.22
2022-09-20T01:50:10.872Z,94629.22
2022-09-20T01:52:55.847Z,94625.47
2022-09-20T01:55:31.631Z,94627.84
2022-09-20T01:58:10.462Z,94627.84
2022-09-20T02:00:58.981Z,94628.44
2022-09-20T02:03:55.403Z,94620.13
2022-09-20T02:06:25.069Z,94637.72
2022-09-20T02:09:06.837Z,94626.56
2022-09-20T02:11:42.710Z,94627.94
2022-09-20T02:14:33.852Z,94635.94
2022-09-20T02:17:13.953Z,94622.75
2022-09-20T02:19:57.283Z,94624.31
2022-09-20T02:22:51.556Z,94626.06
2022-09-20T02:25:45.401Z,94634.84
2022-09-20T02:28:24.540Z,94623.09
2022-09-20T02:31:11.556Z,94630.81
2022-09-20T02:33:38.117Z,94632.38
2022-09-20T02:36:22.818Z,94626.56
2022-09-20T02:39:10.812Z,94620.91
2022-09-20T02:42:19.393Z,94622.78
2022-09-20T02:45:09.778Z,94629.41
2022-09-20T02:47:39.408Z,94628.31
2022-09-20T02:50:09.118Z,94622.50
2022-09-20T02:53:00.540Z,94618.25
2022-09-20T02:55:47.142Z,94623.47
2022-09-20T02:58:49.222Z,94622.38
2022-09-20T03:01:24.852Z,94623.19
2022-09-20T03:04:09.368Z,94625.25
2022-09-20T03:06:48.433Z,94628.81
2022-09-20T03:09:49.200Z,94628.31
2022-09-20T03:12:38.214Z,94634.16
2022-09-20T03:15:25.358Z,94628.50
2022-09-20T03:18:07.507Z,94635.44
2022-09-20T03:20:52.594Z,94640.09
2022-09-20T03:23:47.104Z,94640.88
2022-09-20T03:26:31.895Z,94639.78
2022-09-20T03:29:08.630Z,94636.94
2022-09-20T03:31:50.812Z,94640.09
2022-09-20T03:34:46.585Z,94639.78
2022-09-20T03:37:50.783Z,94643.25
2022-09-20T03:40:17.810Z,94640.09
2022-09-20T03:42:51.902Z,94636.44
2022-09-20T03:45:53.354Z,94635.94
2022-09-20T03:48:58.952Z,94638.91
2022-09-20T03:51:39.190Z,94631.84
2022-09-20T03:54:31.326Z,94629.66
2022-09-20T03:57:10.081Z,94634.19
2022-09-20T03:59:55.460Z,94643.47
2022-09-20T04:02:29.280Z,94639.84
2022-09-20T04:05:01.414Z,94632.91
2022-09-20T04:07:50.014Z,94634.19
2022-09-20T04:10:46.965Z,94625.72
2022-09-20T04:13:35.213Z,94636.56
2022-09-20T04:16:01.795Z,94639.41
2022-09-20T04:18:37.791Z,94634.06
2022-09-20T04:21:14.172Z,94634.38
2022-09-20T04:23:49.769Z,94638.91
2022-09-20T04:26:26.012Z,94642.63
2022-09-20T04:29:14.414Z,94643.09
2022-09-20T04:31:54.093Z,94641.72
2022-09-20T04:34:52.983Z,94643.47
2022-09-20T04:37:41.142Z,94646.81
2022-09-20T04:40:42.311Z,94647.31
2022-09-20T04:43:33.966Z,94648.00
2022-09-20T04:46:38.363Z,94650.38
2022-09-20T04:49:23.228Z,94642.06
2022-09-20T04:52:11.112Z,94651.66
2022-09-20T04:54:44.272Z,94662.03
2022-09-20T04:57:34.395Z,94654.19
2022-09-20T05:00:11.210Z,94653.88
2022-09-20T05:02:59.831Z,94666.94
2022-09-20T05:06:00.621Z,94664.41
2022-09-20T05:08:59.218Z,94664.19
2022-09-20T05:11:30.657Z,94651.34
2022-09-20T05:14:28.738Z,94664.56
2022-09-20T05:17:07.169Z,94666.13
2022-09-20T05:19:56.025Z,94662.88
2022-09-20T05:22:33.706Z,94672.47
2022-09-20T05:25:19.039Z,94670.97
2022-09-20T05:27:57.035Z,94667.66
2022-09-20T05:30:45.546Z,94674.75
2022-09-20T05:33:40.331Z,94681.66
2022-09-20T05:36:33.687Z,94681.38
2022-09-20T05:39:19.149Z,94682.16
2022-09-20T05:41:56.446Z,94690.34
2022-09-20T05:44:50.126Z,94675.63
2022-09-20T05:47:23.426Z,94681.44
2022-09-20T05:50:19.446Z,94688.66
2022-09-20T05:53:17.416Z,94687.28
2022-09-20T05:56:05.126Z,94688.38
2022-09-20T05:59:07.441Z,94694.00
2022-09-20T06:02:05.465Z,94694.00
2022-09-20T06:04:45.371Z,94697.38
2022-09-20T06:07:31.692Z,94696.94
2022-09-20T06:10:31.101Z,94694.75
2022-09-20T06:13:09.348Z,94697.91
2022-09-20T06:16:02.351Z,94707.88
2022-09-20T06:19:00.095Z,94708.19
2022-09-20T06:21:50.782Z,94705.31
2022-09-20T06:24:43.447Z,94710.97
2022-09-20T06:27:19.301Z,94709.19
2022-09-20T06:29:53.300Z,94709.38
2022-09-20T06:32:19.990Z,94713.81
2022-09-20T06:34:48.174Z,94708.19
2022-09-20T06:37:45.773Z,94711.34
2022-09-20T06:40:46.253Z,94716.09
2022-09-20T06:43:14.529Z,94714.84
2022-09-20T06:45:42.971Z,94713.47
2022-09-20T06:48:11.674Z,94714.06
2022-09-20T06:50:38.747Z,94716.13
2022-09-20T06:53:06.582Z,94723.06
2022-09-20T06:55:42.300Z,94725.13
2022-09-20T06:58:09.795Z,94722.47
2022-09-20T07:00:37.055Z,94727.81
2022-09-20T07:03:04.060Z,94728.28
2022-09-20T07:05:30.817Z,94724.22
2022-09-20T07:07:58.748Z,94729.47
2022-09-20T07:10:30.225Z,94725.69
2022-09-20T07:13:00.843Z,94731.19
2022-09-20T07:15:28.813Z,94731.84
2022-09-20T07:17:55.618Z,94731.38
2022-09-20T07:20:22.988Z,94728.28
2022-09-20T07:22:49.999Z,94726.91
2022-09-20T07:25:18.229Z,94731.03
2022-09-20T07:27:46.463Z,94730.97
2022-09-20T07:30:17.833Z,94730.06
2022-09-20T07:32:44.514Z,94734.34
2022-09-20T07:35:12.333Z,94726.56
2022-09-20T07:37:41.367Z,94731.00
2022-09-20T07:40:10.510Z,94740.44
2022-09-20T07:42:37.469Z,94732.47
2022-09-20T07:45:04.637Z,94735.31
2022-09-20T07:47:35.554Z,94736.75
2022-09-20T07:50:03.417Z,94741.03
2022-09-20T07:52:30.185Z,94741.88
2022-09-20T07:54:56.816Z,94744.69
2022-09-20T07:57:23.669Z,94748.00
2022-09-20T07:59:50.297Z,94749.91
2022-09-20T08:02:17.087Z,94752.59
2022-09-20T08:04:44.257Z,94752.72
2022-09-20T08:07:12.538Z,94757.97
2022-09-20T08:09:39.241Z,94758.00
2022-09-20T08:14:53.812Z,94759.59
2022-09-20T08:17:20.510Z,94767.19
2022-09-20T08:19:47.813Z,94765.00
2022-09-20T08:22:14.488Z,94776.38
2022-09-20T08:24:41.130Z,94774.00
2022-09-20T08:27:07.745Z,94776.06
2022-09-20T08:29:34.430Z,94774.16
2022-09-20T08:32:02.237Z,94776.22
2022-09-20T08:34:28.967Z,94783.34
2022-09-20T08:36:56.630Z,94780.50
2022-09-20T08:42:12.451Z,94790.25
2022-09-20T08:44:57.746Z,94795.78
2022-09-20T08:47:33.196Z,94792.34
2022-09-20T08:50:08.885Z,94791.88
2022-09-20T08:52:39.872Z,94784.88
2022-09-20T08:55:22.312Z,94784.41
2022-09-20T08:57:52.058Z,94784.84
2022-09-20T09:00:22.486Z,94786.63
2022-09-20T09:02:52.992Z,94791.06
2022-09-20T09:05:37.065Z,94795.81
2022-09-20T09:08:12.383Z,94796.13
2022-09-20T09:10:43.530Z,94796.28
2022-09-20T09:13:21.975Z,94795.00
2022-09-20T09:15:55.263Z,94791.22
2022-09-20T09:18:21.949Z,94787.72
2022-09-20T09:20:51.244Z,94780.31
2022-09-20T09:23:25.459Z,94780.09
2022-09-20T09:25:54.658Z,94777.72
2022-09-20T09:28:29.429Z,94773.34
2022-09-20T09:31:22.370Z,94777.72
2022-09-20T09:33:49.397Z,94777.28
2022-09-20T09:36:20.446Z,94772.94
2022-09-20T09:38:47.677Z,94769.78
2022-09-20T09:41:29.922Z,94771.50
2022-09-20T09:44:01.056Z,94770.78
2022-09-20T09:46:33.133Z,94770.13
2022-09-20T09:49:17.302Z,94771.38
2022-09-20T09:52:04.938Z,94775.19
2022-09-20T09:54:48.976Z,94774.53
2022-09-20T09:57:33.862Z,94768.47
2022-09-20T10:00:21.962Z,94762.25
2022-09-20T10:03:01.850Z,94756.19
2022-09-20T10:05:40.684Z,94761.56
2022-09-20T10:08:26.838Z,94761.84
2022-09-20T10:11:10.541Z,94762.97
2022-09-20T10:13:49.559Z,94762.16
2022-09-20T10:16:29.538Z,94764.81
2022-09-20T10:19:40.833Z,94769.16
2022-09-20T10:23:14.687Z,94767.41
2022-09-20T10:25:50.936Z,94765.72
2022-09-20T10:28:50.724Z,94767.75
2022-09-20T10:31:45.673Z,94760.31
2022-09-20T10:34:49.060Z,94759.34
2022-09-20T10:37:33.446Z,94766.03
2022-09-20T10:40:21.261Z,94764.16
2022-09-20T10:43:16.393Z,94776.59
2022-09-20T10:46:30.368Z,94770.47
2022-09-20T10:49:26.819Z,94770.09
2022-09-20T10:52:00.861Z,94768.00
2022-09-20T10:54:33.705Z,94771.25
2022-09-20T10:57:42.108Z,94773.16
2022-09-20T11:00:23.932Z,94777.16
2022-09-20T11:03:08.754Z,94782.94
2022-09-20T11:05:56.518Z,94778.97
2022-09-20T11:08:28.506Z,94780.06
2022-09-20T11:11:02.900Z,94778.41
2022-09-20T11:13:58.322Z,94779.19
2022-09-20T11:16:43.370Z,94775.03
2022-09-20T11:19:34.067Z,94781.75
2022-09-20T11:22:06.397Z,94778.69
2022-09-20T11:24:38.982Z,94780.44
2022-09-20T11:27:25.653Z,94783.69
2022-09-20T11:30:02.044Z,94780.31
2022-09-20T11:32:43.305Z,94781.63
2022-09-20T11:35:14.865Z,94785.69
2022-09-20T11:37:48.985Z,94790.72
2022-09-20T11:40:48.221Z,94793.25
2022-09-20T11:43:18.387Z,94785.63
2022-09-20T11:45:47.909Z,94785.81
2022-09-20T11:48:21.877Z,94780.81
2022-09-20T11:51:13.205Z,94781.38
2022-09-20T11:53:58.694Z,94777.16
2022-09-20T11:56:29.041Z,94779.34
2022-09-20T11:59:02.694Z,94772.19
2022-09-20T12:01:40.980Z,94773.69
2022-09-20T12:04:34.669Z,94772.28
2022-09-20T12:07:17.866Z,94767.66
2022-09-20T12:09:59.014Z,94776.66
2022-09-20T12:12:30.917Z,94765.22
2022-09-20T12:15:00.771Z,94763.78
2022-09-20T12:17:45.629Z,94760.25
2022-09-20T12:20:42.552Z,94758.97
2022-09-20T12:23:43.358Z,94763.13
2022-09-20T12:26:20.530Z,94760.50
2022-09-20T12:28:51.081Z,94758.50
2022-09-20T12:31:29.529Z,94759.28
2022-09-20T12:34:10.045Z,94751.81
2022-09-20T12:36:39.368Z,94756.34
2022-09-20T12:39:12.155Z,94747.38
2022-09-20T12:41:50.024Z,94745.03
2022-09-20T12:44:26.553Z,94741.53
2022-09-20T12:46:57.768Z,94751.22
2022-09-20T12:50:04.466Z,94748.22
2022-09-20T12:52:52.137Z,94733.78
2022-09-20T12:55:41.012Z,94742.69
2022-09-20T12:58:14.174Z,94744.44
2022-09-20T13:00:57.652Z,94741.53
2022-09-20T13:03:37.781Z,94745.09
2022-09-20T13:06:08.853Z,94744.66
2022-09-20T13:08:39.936Z,94744.41
2022-09-20T13:11:06.793Z,94746.69
2022-09-20T13:14:01.586Z,94741.81
2022-09-20T13:16:40.863Z,94745.41
2022-09-20T13:19:19.686Z,94738.09
2022-09-20T13:21:53.318Z,94741.88
2022-09-20T13:24:20.909Z,94743.84
2022-09-20T13:26:49.944Z,94740.97
2022-09-20T13:29:33.251Z,94746.16
2022-09-20T13:32:24.204Z,94736.97
2022-09-20T13:35:12.216Z,94738.50
2022-09-20T13:37:44.781Z,94738.16
2022-09-20T13:40:39.719Z,94740.78
2022-09-20T13:43:24.461Z,94733.59
2022-09-20T13:45:56.685Z,94731.34
2022-09-20T13:48:28.271Z,94740.06
2022-09-20T13:50:56.406Z,94736.09
2022-09-20T13:53:40.457Z,94741.41
2022-09-20T13:56:20.256Z,94741.00
2022-09-20T13:58:48.266Z,94738.44
2022-09-20T14:01:20.831Z,94743.47
2022-09-20T14:03:48.056Z,94740.75
2022-09-20T14:06:16.132Z,94742.88
2022-09-20T14:08:45.961Z,94737.34
2022-09-20T14:11:32.358Z,94735.97
2022-09-20T14:14:02.467Z,94742.56
2022-09-20T14:16:38.269Z,94751.09
2022-09-20T14:19:08.080Z,94747.84
2022-09-20T14:21:36.709Z,94742.31
2022-09-20T14:24:23.286Z,94753.16
2022-09-20T14:27:22.057Z,94748.41
2022-09-20T14:29:54.198Z,94757.13
2022-09-20T14:32:20.837Z,94752.31
2022-09-20T14:35:01.972Z,94747.94
2022-09-20T14:37:43.764Z,94749.50
2022-09-20T14:40:21.750Z,94751.31
2022-09-20T14:43:20.897Z,94743.25
2022-09-20T14:45:54.392Z,94745.16
2022-09-20T14:48:21.435Z,94753.56
2022-09-20T14:51:12.517Z,94753.50
2022-09-20T14:53:39.219Z,94750.75
2022-09-20T14:56:05.893Z,94750.75
2022-09-20T14:58:34.002Z,94753.09
2022-09-20T15:01:24.129Z,94754.25
2022-09-20T15:03:51.693Z,94754.38
2022-09-20T15:06:19.100Z,94748.97
2022-09-20T15:08:46.888Z,94745.84
2022-09-20T15:11:20.517Z,94747.41
2022-09-20T15:13:47.173Z,94745.84
2022-09-20T15:16:17.652Z,94748.97
2022-09-20T15:18:44.891Z,94752.22
2022-09-20T15:21:12.082Z,94744.00
2022-09-20T15:23:40.003Z,94752.09
2022-09-20T15:26:07.817Z,94750.63
2022-09-20T15:28:35.144Z,94748.06
2022-09-20T15:31:02.238Z,94742.47
2022-09-20T15:33:32.024Z,94740.16
2022-09-20T15:35:59.678Z,94734.91
2022-09-20T15:38:27.078Z,94732.66
2022-09-20T15:40:54.231Z,94739.00
2022-09-20T15:43:24.159Z,94740.06
2022-09-20T15:46:03.110Z,94736.47
2022-09-20T15:48:30.768Z,94733.53
2022-09-20T15:51:05.909Z,94733.66
2022-09-20T15:53:41.138Z,94731.31
2022-09-20T15:56:22.984Z,94737.34
2022-09-20T15:59:00.986Z,94735.31
2022-09-20T16:01:42.221Z,94733.22
2022-09-20T16:04:10.955Z,94734.78
2022-09-20T16:06:39.228Z,94745.63
2022-09-20T16:09:07.547Z,94741.00
2022-09-20T16:11:34.258Z,94738.69
2022-09-20T16:14:01.128Z,94746.97
2022-09-20T16:16:29.951Z,94748.53
2022-09-20T16:19:15.323Z,94750.66
2022-09-20T16:21:44.225Z,94756.28
2022-09-20T16:24:14.355Z,94756.41
2022-09-20T16:26:41.560Z,94760.03
2022-09-20T16:29:08.618Z,94761.53
2022-09-20T16:31:47.331Z,94766.59
2022-09-20T16:34:22.721Z,94759.66
2022-09-20T16:36:51.881Z,94769.47
2022-09-20T16:39:20.226Z,94762.44
2022-09-20T16:41:48.962Z,94768.63
2022-09-20T16:44:16.059Z,94769.47
2022-09-20T16:46:45.126Z,94774.84
2022-09-20T16:49:13.163Z,94776.50
2022-09-20T16:51:42.571Z,94777.63
2022-09-20T16:54:14.948Z,94782.22
2022-09-20T16:56:44.626Z,94779.06
2022-09-20T16:59:12.554Z,94783.31
2022-09-20T17:01:40.427Z,94786.94
2022-09-20T17:04:08.348Z,94778.44
2022-09-20T17:06:37.148Z,94783.66
2022-09-20T17:09:05.765Z,94787.13
2022-09-20T17:11:37.399Z,94785.72
2022-09-20T17:14:05.090Z,94795.47
2022-09-20T17:16:37.083Z,94793.75
2022-09-20T17:19:09.176Z,94806.53
2022-09-20T17:21:38.813Z,94802.88
2022-09-20T17:24:07.906Z,94812.50
2022-09-20T17:26:40.306Z,94810.56
2022-09-20T17:29:09.857Z,94813.28
2022-09-20T17:31:39.574Z,94810.88
2022-09-20T17:34:09.552Z,94817.66
2022-09-20T17:36:44.618Z,94822.22
2022-09-20T17:39:13.018Z,94826.00
2022-09-20T17:41:46.904Z,94818.56
2022-09-20T17:44:14.837Z,94824.56
2022-09-20T17:46:51.484Z,94825.66
2022-09-20T17:49:20.133Z,94818.97
2022-09-20T17:51:49.105Z,94820.38
2022-09-20T17:54:16.357Z,94832.31
2022-09-20T17:56:44.920Z,94838.09
2022-09-20T17:59:12.462Z,94841.84
2022-09-20T18:01:40.262Z,94838.50
2022-09-20T18:04:07.433Z,94849.53
2022-09-20T18:06:44.274Z,94846.19
2022-09-20T18:09:15.018Z,94843.81
2022-09-20T18:11:48.856Z,94845.88
2022-09-20T18:14:17.759Z,94844.78
2022-09-20T18:16:44.401Z,94852.00
2022-09-20T18:19:11.519Z,94850.75
2022-09-20T18:21:39.478Z,94862.53
2022-09-20T18:24:07.181Z,94855.25
2022-09-20T18:26:34.913Z,94867.00
2022-09-20T18:29:05.959Z,94870.44
2022-09-20T18:31:37.954Z,94869.84
2022-09-20T18:34:07.369Z,94872.16
2022-09-20T18:36:36.394Z,94875.31
2022-09-20T18:39:03.625Z,94880.03
2022-09-20T18:41:34.889Z,94882.69
2022-09-20T18:44:04.009Z,94887.25
2022-09-20T18:46:31.246Z,94888.84
2022-09-20T18:49:04.694Z,94885.97
2022-09-20T18:51:35.855Z,94887.06
2022-09-20T18:54:05.940Z,94897.66
2022-09-20T18:56:37.349Z,94895.06
2022-09-20T18:59:07.597Z,94908.28
2022-09-20T19:01:37.244Z,94905.13
2022-09-20T19:04:28.614Z,94905.41
2022-09-20T19:07:20.231Z,94906.81
2022-09-20T19:10:08.846Z,94913.53
2022-09-20T19:12:53.512Z,94913.63
2022-09-20T19:15:40.148Z,94912.84
2022-09-20T19:18:41.286Z,94922.84
2022-09-20T19:21:17.816Z,94917.72
2022-09-20T19:23:50.519Z,94928.41
2022-09-20T19:26:27.449Z,94929.81
2022-09-20T19:28:57.403Z,94931.19
2022-09-20T19:31:32.487Z,94933.84
2022-09-20T19:34:03.055Z,94928.00
2022-09-20T19:36:50.084Z,94936.22
2022-09-20T19:39:34.514Z,94936.03
2022-09-20T19:42:16.410Z,94935.16
2022-09-20T19:44:52.069Z,94938.13
2022-09-20T19:47:48.420Z,94937.63
2022-09-20T19:50:28.023Z,94947.00
2022-09-20T19:52:58.479Z,94963.63
2022-09-20T19:55:25.543Z,94969.97
2022-09-20T19:57:52.425Z,94973.38
2022-09-20T20:00:21.115Z,94980.41
2022-09-20T20:02:48.626Z,94975.06
2022-09-20T20:05:18.729Z,94977.66
2022-09-20T20:08:03.460Z,94979.97
2022-09-20T20:10:38.867Z,94973.72
2022-09-20T20:13:42.877Z,94979.94
2022-09-20T20:16:16.100Z,94983.81
2022-09-20T20:18:50.335Z,94981.25
2022-09-20T20:21:32.324Z,94980.91
2022-09-20T20:24:05.726Z,94981.63
2022-09-20T20:26:32.627Z,94982.19
2022-09-20T20:29:00.097Z,94981.47
2022-09-20T20:31:27.226Z,94982.84
2022-09-20T20:33:54.697Z,94981.25
2022-09-20T20:36:21.488Z,94975.63
2022-09-20T20:38:51.738Z,94979.09
2022-09-20T20:41:21.707Z,94978.22
2022-09-20T20:43:56.317Z,94976.13
2022-09-20T20:46:23.916Z,94983.16
2022-09-20T20:48:50.557Z,94982.13
2022-09-20T20:51:19.685Z,94981.56
2022-09-20T20:53:49.272Z,94985.53
2022-09-20T20:56:28.630Z,94983.22
2022-09-20T20:59:00.503Z,94984.34
2022-09-20T21:01:38.460Z,94985.50
2022-09-20T21:04:07.882Z,94983.31
2022-09-20T21:06:36.481Z,94991.94
2022-09-20T21:09:05.360Z,94984.66
2022-09-20T21:11:35.615Z,94990.19
2022-09-20T21:14:06.575Z,94996.25
2022-09-20T21:16:38.976Z,94988.53
2022-09-20T21:19:06.260Z,94990.91
2022-09-20T21:21:35.396Z,94993.09
2022-09-20T21:24:04.479Z,94990.13
2022-09-20T21:26:32.465Z,94985.56
2022-09-20T21:29:01.293Z,94994.34
2022-09-20T21:31:31.110Z,94985.66
2022-09-20T21:33:58.468Z,94987.47
2022-09-20T21:36:27.860Z,94986.78
2022-09-20T21:38:54.862Z,94985.50
2022-09-20T21:41:27.459Z,94981.25
2022-09-20T21:43:56.280Z,94980.72
2022-09-20T21:46:28.999Z,94982.47
2022-09-20T21:48:57.835Z,94989.50
2022-09-20T21:51:25.870Z,94984.81
2022-09-20T21:53:57.486Z,94988.13
2022-09-20T21:56:27.465Z,94983.88
2022-09-20T21:58:54.910Z,94986.03
2022-09-20T22:01:24.216Z,94984.25
2022-09-20T22:03:57.422Z,94986.69
2022-09-20T22:06:26.588Z,94989.22
2022-09-20T22:08:58.972Z,94988.63
2022-09-20T22:11:31.080Z,94985.81
2022-09-20T22:13:59.087Z,94980.63
2022-09-20T22:16:30.874Z,94984.16
2022-09-20T22:18:59.751Z,94985.75
2022-09-20T22:21:32.115Z,94986.75
2022-09-20T22:24:02.728Z,94984.53
2022-09-20T22:26:37.990Z,94984.66
2022-09-20T22:29:06.526Z,94972.13
2022-09-20T22:31:36.595Z,94973.16
2022-09-20T22:34:06.544Z,94972.13
2022-09-20T22:36:39.174Z,94977.25
2022-09-20T22:39:09.755Z,94970.19
2022-09-20T22:41:37.893Z,94966.81
2022-09-20T22:44:05.976Z,94967.44
2022-09-20T22:46:34.576Z,94961.59
2022-09-20T22:49:01.495Z,94970.09
2022-09-20T22:51:35.520Z,94974.63
2022-09-20T22:54:10.783Z,94969.41
2022-09-20T22:56:39.376Z,94967.59
2022-09-20T22:59:12.167Z,94962.31
2022-09-20T23:01:43.091Z,94965.84
2022-09-20T23:04:13.486Z,94962.47
2022-09-20T23:06:46.940Z,94964.34
2022-09-20T23:09:15.507Z,94961.66
2022-09-20T23:11:43.001Z,94967.63
2022-09-20T23:14:15.900Z,94965.81
2022-09-20T23:16:43.713Z,94960.50
2022-09-20T23:19:11.831Z,94957.84
2022-09-20T23:21:41.578Z,94962.16
2022-09-20T23:24:10.048Z,94959.84
2022-09-20T23:26:38.391Z,94962.78
2022-09-20T23:29:08.193Z,94965.97
2022-09-20T23:31:37.392Z,94968.56
2022-09-20T23:34:06.529Z,94960.63
2022-09-20T23:36:36.367Z,94973.44
2022-09-20T23:39:03.229Z,94964.16
2022-09-20T23:41:30.582Z,94971.66
2022-09-20T23:43:57.867Z,94964.59
2022-09-20T23:46:26.707Z,94968.91
2022-09-20T23:48:53.880Z,94972.88
2022-09-20T23:51:23.701Z,94975.81
2022-09-20T23:53:52.620Z,94971.06
2022-09-20T23:56:21.623Z,94970.75
2022-09-20T23:58:48.667Z,94968.38
